Portada
METAR-TAF:

METAR-TAF

Aeropuertos :

Aeropuerto Internacional de Pekín-Capital

Pekín, China

latitud: 39-56N, longitud: 116-17E, altitud: 55 m

Observación

El informe se hizo hace 35 minutos, a las 12:00 UTC
Viento 8 kt del norte
Temperatura 5°C
Humedad 33%
Presión 1031 hPa
Visibilidad 10 km o más
sin nubes por debajo de 1500 m y sin presencia de cumulonimbus.

METAR: ZBAA 151200Z 36004MPS CAVOK 05/M10 Q1031 NOSIG

Hora: 20:35 (12:35 UTC)

Pronóstico

El informe se hizo hace 3 horas y 5 minutos, a las 09:30 UTC
Pronóstico válido del 15 a las 12 UTC al 16 a las 12 UTC
Viento 8 kt del norte-noreste
Visibilidad 10 km o más
sin nubes por debajo de 1500 m y sin presencia de cumulonimbus.

TAF: ZBAA 150930Z 1512/1612 03004MPS CAVOK TX08/1607Z TNM01/21Z

Observaciones y pronósticos meteorológicos de más de 4000 aeropuertos (mensajes METAR y TAF).

Los puntos amarillos y rojos representan las estaciones disponibles.

Ponga el ratón en el punto deseado para ver el nombre de la estación.

Haga clic para ver las observaciones y los pronósticos meteorológicos.

Para cambiar el mapa : haga clic en los botones verdes con una cruz de color negro para hacer un zoom, en el botón verde con un guión para alejar o en las flechas verdes para mapas adyacentes.


METAR-TAF: